Time;durP1;ratioP1;P1;durP2;ratioP2;P2;SDS_P1;SDS_P2;PMS_P1;PMS_P2;Temp;Humidity;BMP_temperature;BMP_pressure;BME280_temperature;BME280_humidity;BME280_pressure;Samples;Min_cycle;Max_cycle;Signal;HPM_P1;HPM_P2
2024/02/05 00:01:49;;;;;;;3.22;0.80;;;;;;;;;;4844185;29;20392;-82
2024/02/05 00:04:19;;;;;;;1.63;0.63;;;;;;;;;;4843905;29;20050;-82
2024/02/05 00:06:49;;;;;;;1.45;0.80;;;;;;;;;;4843636;29;20060;-83
2024/02/05 00:09:19;;;;;;;1.52;0.90;;;;;;;;;;4844289;29;20392;-83
2024/02/05 00:11:52;;;;;;;4.05;0.93;;;;;;;;;;4843700;29;20046;-84
2024/02/05 00:14:23;;;;;;;1.65;0.80;;;;;;;;;;4827056;29;20057;-84
2024/02/05 00:16:52;;;;;;;5.60;1.10;;;;;;;;;;4827047;29;20073;-84
2024/02/05 00:19:23;;;;;;;1.63;0.88;;;;;;;;;;4856997;29;20058;-84
2024/02/05 00:21:54;;;;;;;2.03;0.70;;;;;;;;;;4826545;29;20512;-85
2024/02/05 00:24:25;;;;;;;2.13;0.93;;;;;;;;;;4827493;29;20046;-85
2024/02/05 00:26:55;;;;;;;2.22;0.70;;;;;;;;;;4843223;29;20408;-84
2024/02/05 00:29:25;;;;;;;3.35;1.00;;;;;;;;;;4843084;29;20054;-85
2024/02/05 00:31:57;;;;;;;7.43;0.90;;;;;;;;;;4842006;29;20481;-85
2024/02/05 00:34:27;;;;;;;4.65;1.15;;;;;;;;;;4843419;29;20057;-84
2024/02/05 00:36:57;;;;;;;3.20;1.08;;;;;;;;;;4826137;29;20058;-85
2024/02/05 00:39:27;;;;;;;2.83;0.88;;;;;;;;;;4826444;29;20053;-82
2024/02/05 00:41:58;;;;;;;4.47;1.10;;;;;;;;;;4843581;29;20511;-82
2024/02/05 00:44:30;;;;;;;2.95;0.90;;;;;;;;;;4843239;29;20050;-84
2024/02/05 00:46:59;;;;;;;4.18;1.30;;;;;;;;;;4841058;29;20141;-83
2024/02/05 00:49:31;;;;;;;3.17;1.17;;;;;;;;;;4843413;29;20050;-83
2024/02/05 00:52:01;;;;;;;2.50;0.95;;;;;;;;;;4811124;29;20054;-83
2024/02/05 00:54:32;;;;;;;4.30;1.45;;;;;;;;;;4843083;29;20049;-83
2024/02/05 00:57:03;;;;;;;3.28;1.02;;;;;;;;;;4843433;29;20511;-83
2024/02/05 00:59:34;;;;;;;2.35;1.13;;;;;;;;;;4842869;29;20061;-83
2024/02/05 01:02:06;;;;;;;3.13;1.13;;;;;;;;;;4824829;29;20050;-82
2024/02/05 01:04:39;;;;;;;5.32;1.17;;;;;;;;;;4842637;29;20042;-83
2024/02/05 01:08:05;;;;;;;2.67;1.15;;;;;;;;;;4824156;29;20058;-82
2024/02/05 01:10:36;;;;;;;2.97;1.02;;;;;;;;;;4856757;29;20054;-82
2024/02/05 01:13:06;;;;;;;5.05;1.02;;;;;;;;;;4825479;29;20144;-82
2024/02/05 01:15:36;;;;;;;2.65;1.17;;;;;;;;;;4826022;29;20480;-82
2024/02/05 01:18:07;;;;;;;1.58;0.90;;;;;;;;;;4855563;29;20524;-82
2024/02/05 01:20:37;;;;;;;3.45;1.27;;;;;;;;;;4842573;29;20062;-82
2024/02/05 01:23:07;;;;;;;3.00;1.15;;;;;;;;;;4825994;29;20061;-82
2024/02/05 01:25:37;;;;;;;1.60;1.00;;;;;;;;;;4823822;29;20607;-82
2024/02/05 01:28:07;;;;;;;4.78;1.20;;;;;;;;;;4822690;29;20080;-82
2024/02/05 01:31:08;;;;;;;6.72;1.40;;;;;;;;;;4825843;29;20046;-82
2024/02/05 01:33:38;;;;;;;3.42;1.10;;;;;;;;;;4826678;29;20413;-82
2024/02/05 01:36:09;;;;;;;2.17;0.90;;;;;;;;;;4828460;29;20057;-82
2024/02/05 01:38:39;;;;;;;6.25;1.23;;;;;;;;;;4858522;29;20057;-83
2024/02/05 01:41:10;;;;;;;3.08;1.10;;;;;;;;;;4866322;29;20028;-83
2024/02/05 01:43:40;;;;;;;4.63;1.80;;;;;;;;;;4853023;29;20054;-83
2024/02/05 01:46:21;;;;;;;7.57;1.33;;;;;;;;;;4864683;29;20048;-82
2024/02/05 01:48:56;;;;;;;2.05;0.98;;;;;;;;;;4865626;29;20044;-82
2024/02/05 01:51:30;;;;;;;2.53;1.10;;;;;;;;;;4865205;29;20065;-84
2024/02/05 01:54:02;;;;;;;2.72;1.10;;;;;;;;;;4859454;29;20054;-83
2024/02/05 01:56:33;;;;;;;3.85;1.13;;;;;;;;;;4843359;29;20054;-84
2024/02/05 01:59:04;;;;;;;3.03;1.20;;;;;;;;;;4845430;29;20064;-82
2024/02/05 02:01:38;;;;;;;4.03;1.17;;;;;;;;;;4842881;29;20061;-81
2024/02/05 02:04:09;;;;;;;3.70;1.20;;;;;;;;;;4844879;29;20500;-81
2024/02/05 02:06:41;;;;;;;4.80;1.30;;;;;;;;;;4844591;29;20046;-82
2024/02/05 02:09:13;;;;;;;3.67;1.38;;;;;;;;;;4869212;29;20057;-82
2024/02/05 02:11:46;;;;;;;7.85;1.30;;;;;;;;;;4847334;29;20056;-81
2024/02/05 02:14:17;;;;;;;4.10;1.10;;;;;;;;;;4845800;29;20053;-81
2024/02/05 02:16:49;;;;;;;3.60;1.20;;;;;;;;;;4862978;29;20500;-81
2024/02/05 02:19:45;;;;;;;9.15;1.65;;;;;;;;;;4862601;29;20057;-81
2024/02/05 02:22:43;;;;;;;4.40;1.23;;;;;;;;;;4861022;29;20072;-82
2024/02/05 02:25:13;;;;;;;4.57;1.08;;;;;;;;;;4827825;29;20065;-82
2024/02/05 02:27:45;;;;;;;7.68;1.90;;;;;;;;;;4863043;29;20065;-80
2024/02/05 02:30:18;;;;;;;4.40;1.50;;;;;;;;;;4863701;29;20045;-80
2024/02/05 02:33:23;;;;;;;2.70;1.40;;;;;;;;;;4846504;29;20076;-82
2024/02/05 02:36:03;;;;;;;5.43;1.10;;;;;;;;;;4845929;29;20057;-81
2024/02/05 02:38:52;;;;;;;5.68;1.17;;;;;;;;;;4863816;29;20061;-81
2024/02/05 02:41:29;;;;;;;2.35;1.20;;;;;;;;;;4876731;29;20399;-80
2024/02/05 02:44:03;;;;;;;5.35;1.27;;;;;;;;;;4847004;29;20120;-80
2024/02/05 02:46:33;;;;;;;4.25;1.27;;;;;;;;;;4863506;29;20054;-81
2024/02/05 02:49:04;;;;;;;5.63;1.23;;;;;;;;;;4847117;29;20518;-81
2024/02/05 02:51:34;;;;;;;2.85;1.00;;;;;;;;;;4862957;29;20061;-82
2024/02/05 02:54:04;;;;;;;2.83;1.00;;;;;;;;;;4863224;29;20073;-83
2024/02/05 02:56:34;;;;;;;5.78;1.80;;;;;;;;;;4846518;29;20050;-82
2024/02/05 02:59:06;;;;;;;2.92;1.00;;;;;;;;;;4863398;29;20053;-81
2024/02/05 03:01:36;;;;;;;1.75;0.95;;;;;;;;;;4862908;29;20073;-81
2024/02/05 03:04:07;;;;;;;4.32;1.42;;;;;;;;;;4862788;29;20048;-82
2024/02/05 03:06:38;;;;;;;5.18;1.00;;;;;;;;;;4876378;29;20539;-82
2024/02/05 03:09:08;;;;;;;3.90;1.10;;;;;;;;;;4845971;29;20050;-81
2024/02/05 03:11:39;;;;;;;6.45;1.27;;;;;;;;;;4845740;29;20058;-81
2024/02/05 03:14:10;;;;;;;7.30;1.20;;;;;;;;;;4862736;29;20123;-82
2024/02/05 03:16:40;;;;;;;3.53;1.23;;;;;;;;;;4862744;29;20065;-81
2024/02/05 03:19:11;;;;;;;4.45;1.20;;;;;;;;;;4862620;29;20057;-82
2024/02/05 03:21:41;;;;;;;5.10;1.13;;;;;;;;;;4876617;29;20046;-81
2024/02/05 03:24:11;;;;;;;4.45;1.13;;;;;;;;;;4862568;29;20049;-82
2024/02/05 03:26:43;;;;;;;5.10;1.50;;;;;;;;;;4846094;29;20049;-81
2024/02/05 03:29:15;;;;;;;3.38;1.02;;;;;;;;;;4860861;29;20519;-82
2024/02/05 03:31:45;;;;;;;2.42;1.00;;;;;;;;;;4846341;29;20065;-81
2024/02/05 03:34:17;;;;;;;3.63;1.20;;;;;;;;;;4846076;29;20053;-81
2024/02/05 03:36:47;;;;;;;2.53;1.17;;;;;;;;;;4862434;29;20061;-81
2024/02/05 03:39:17;;;;;;;1.50;0.98;;;;;;;;;;4845248;29;20444;-82
2024/02/05 03:41:47;;;;;;;7.60;1.40;;;;;;;;;;4862380;29;20404;-81
2024/02/05 03:44:17;;;;;;;3.85;1.10;;;;;;;;;;4861806;29;20060;-81
2024/02/05 03:46:47;;;;;;;4.32;1.20;;;;;;;;;;4861945;29;20066;-80
2024/02/05 03:49:17;;;;;;;3.63;1.05;;;;;;;;;;4862670;29;20045;-80
2024/02/05 03:51:48;;;;;;;3.45;1.30;;;;;;;;;;4861305;29;20049;-80
2024/02/05 03:54:17;;;;;;;3.97;1.27;;;;;;;;;;4861946;29;20052;-81
2024/02/05 03:56:47;;;;;;;5.65;1.27;;;;;;;;;;4861694;29;20041;-80
2024/02/05 03:59:17;;;;;;;8.93;1.50;;;;;;;;;;4862118;29;20049;-80
2024/02/05 04:01:47;;;;;;;6.38;1.40;;;;;;;;;;4861901;29;20072;-80
2024/02/05 04:04:17;;;;;;;4.93;1.23;;;;;;;;;;4861894;29;20480;-81
2024/02/05 04:06:47;;;;;;;8.07;1.33;;;;;;;;;;4861889;29;20046;-81
2024/02/05 04:09:18;;;;;;;3.95;1.30;;;;;;;;;;4861927;29;20492;-80
2024/02/05 04:11:48;;;;;;;4.00;1.13;;;;;;;;;;4861329;29;20488;-81
2024/02/05 04:14:18;;;;;;;3.70;1.00;;;;;;;;;;4845605;29;20404;-81
2024/02/05 04:16:51;;;;;;;4.90;1.55;;;;;;;;;;4845464;29;20511;-82
2024/02/05 04:19:22;;;;;;;3.40;1.48;;;;;;;;;;4861866;29;20045;-81
2024/02/05 04:21:52;;;;;;;5.25;1.48;;;;;;;;;;4861689;29;20053;-81
2024/02/05 04:24:23;;;;;;;5.90;1.55;;;;;;;;;;4861841;29;20415;-81
2024/02/05 04:26:53;;;;;;;3.08;1.00;;;;;;;;;;4861827;29;20045;-81
2024/02/05 04:29:24;;;;;;;6.60;1.10;;;;;;;;;;4862092;29;20050;-80
2024/02/05 04:31:54;;;;;;;6.15;0.80;;;;;;;;;;4861428;29;20072;-81
2024/02/05 04:34:24;;;;;;;5.43;1.20;;;;;;;;;;4861662;29;20057;-81
2024/02/05 04:36:55;;;;;;;3.17;1.25;;;;;;;;;;4844069;29;20064;-81
2024/02/05 04:39:26;;;;;;;4.72;1.15;;;;;;;;;;4845168;29;20049;-81
2024/02/05 04:41:56;;;;;;;12.13;2.38;;;;;;;;;;4861330;29;20053;-81
2024/02/05 04:44:26;;;;;;;4.35;1.17;;;;;;;;;;4861717;29;20369;-81
2024/02/05 04:46:57;;;;;;;4.50;1.35;;;;;;;;;;4844494;29;20065;-82
2024/02/05 04:49:27;;;;;;;3.85;1.30;;;;;;;;;;4843947;29;20058;-81
2024/02/05 04:51:58;;;;;;;6.20;1.35;;;;;;;;;;4861126;29;20052;-81
2024/02/05 04:54:29;;;;;;;3.45;1.05;;;;;;;;;;4861412;29;20384;-81
2024/02/05 04:56:59;;;;;;;8.05;1.23;;;;;;;;;;4861804;29;20065;-81
2024/02/05 04:59:29;;;;;;;5.78;1.33;;;;;;;;;;4861598;29;20586;-81
2024/02/05 05:01:59;;;;;;;3.60;1.15;;;;;;;;;;4844595;29;20061;-81
2024/02/05 05:04:30;;;;;;;4.90;2.10;;;;;;;;;;4860526;29;20056;-81
2024/02/05 05:07:02;;;;;;;5.75;1.33;;;;;;;;;;4875789;29;20057;-81
2024/02/05 05:09:32;;;;;;;4.13;1.13;;;;;;;;;;4861236;29;20049;-81
2024/02/05 05:12:04;;;;;;;3.97;1.40;;;;;;;;;;4860922;29;20046;-81
2024/02/05 05:14:34;;;;;;;2.80;1.20;;;;;;;;;;4843769;29;20061;-81
2024/02/05 05:17:04;;;;;;;4.93;1.08;;;;;;;;;;4860613;29;20060;-81
2024/02/05 05:19:35;;;;;;;4.13;1.20;;;;;;;;;;4874786;29;20061;-81
2024/02/05 05:22:05;;;;;;;3.65;1.20;;;;;;;;;;4860560;29;20045;-81
2024/02/05 05:24:35;;;;;;;3.30;1.27;;;;;;;;;;4860899;29;20049;-81
2024/02/05 05:27:05;;;;;;;3.35;1.00;;;;;;;;;;4843580;29;20054;-80
2024/02/05 05:29:36;;;;;;;3.20;1.10;;;;;;;;;;4844772;29;20499;-81
2024/02/05 05:32:09;;;;;;;5.40;1.33;;;;;;;;;;4843874;29;20064;-81
2024/02/05 05:34:39;;;;;;;2.05;0.98;;;;;;;;;;4860140;29;20481;-80
2024/02/05 05:37:09;;;;;;;6.07;1.20;;;;;;;;;;4844299;29;20057;-80
2024/02/05 05:39:39;;;;;;;4.47;1.02;;;;;;;;;;4860602;29;20056;-81
2024/02/05 05:42:09;;;;;;;8.98;1.40;;;;;;;;;;4843933;29;20060;-81
2024/02/05 05:44:40;;;;;;;2.95;1.17;;;;;;;;;;4860745;29;20057;-81
2024/02/05 05:47:11;;;;;;;5.22;1.65;;;;;;;;;;4843597;29;20065;-81
2024/02/05 05:49:41;;;;;;;6.20;1.38;;;;;;;;;;4843527;29;20496;-82
2024/02/05 05:52:12;;;;;;;5.28;1.08;;;;;;;;;;4860920;29;20041;-81
2024/02/05 05:54:42;;;;;;;3.35;1.27;;;;;;;;;;4861129;29;20068;-82
2024/02/05 05:57:12;;;;;;;6.28;1.45;;;;;;;;;;4861031;29;20049;-82
2024/02/05 05:59:42;;;;;;;2.63;1.17;;;;;;;;;;4860799;29;20050;-81
2024/02/05 06:02:12;;;;;;;5.78;1.20;;;;;;;;;;4829247;29;20061;-81
2024/02/05 06:04:42;;;;;;;2.63;1.10;;;;;;;;;;4860811;29;20061;-81
2024/02/05 06:07:12;;;;;;;9.60;1.60;;;;;;;;;;4843851;29;20069;-81
2024/02/05 06:09:42;;;;;;;3.75;1.30;;;;;;;;;;4860580;29;20057;-81
2024/02/05 06:12:14;;;;;;;2.55;1.40;;;;;;;;;;4860355;29;20076;-81
2024/02/05 06:14:45;;;;;;;4.05;1.60;;;;;;;;;;4861097;29;20428;-82
2024/02/05 06:17:15;;;;;;;4.65;1.20;;;;;;;;;;4847181;29;20065;-82
2024/02/05 06:19:45;;;;;;;4.97;1.50;;;;;;;;;;4863754;29;20061;-81
2024/02/05 06:22:16;;;;;;;4.25;1.42;;;;;;;;;;4861898;29;20065;-81
2024/02/05 06:24:46;;;;;;;3.50;1.23;;;;;;;;;;4876928;29;20057;-81
2024/02/05 06:27:17;;;;;;;4.30;1.27;;;;;;;;;;4847665;29;20484;-82
2024/02/05 06:29:47;;;;;;;4.35;1.60;;;;;;;;;;4863583;29;20502;-81
2024/02/05 06:32:17;;;;;;;8.50;1.52;;;;;;;;;;4863475;29;20045;-82
2024/02/05 06:34:52;;;;;;;2.92;1.27;;;;;;;;;;4863601;29;20049;-82
2024/02/05 06:37:23;;;;;;;8.18;1.70;;;;;;;;;;4846676;29;20058;-81
2024/02/05 06:39:56;;;;;;;3.35;1.30;;;;;;;;;;4863412;29;20049;-82
2024/02/05 06:42:26;;;;;;;7.15;1.70;;;;;;;;;;4877508;29;20069;-82
2024/02/05 06:44:56;;;;;;;3.22;1.50;;;;;;;;;;4863090;29;20098;-81
2024/02/05 06:47:26;;;;;;;5.38;1.63;;;;;;;;;;4863049;29;20049;-81
2024/02/05 06:49:57;;;;;;;4.30;1.35;;;;;;;;;;4863156;29;20054;-81
2024/02/05 06:52:27;;;;;;;8.23;1.27;;;;;;;;;;4863535;29;20049;-81
2024/02/05 06:54:57;;;;;;;3.38;1.25;;;;;;;;;;4846117;29;20060;-82
2024/02/05 06:57:27;;;;;;;6.05;1.35;;;;;;;;;;4845861;29;20053;-81
2024/02/05 06:59:57;;;;;;;2.97;1.10;;;;;;;;;;4862790;29;20046;-81
2024/02/05 07:02:28;;;;;;;5.95;1.20;;;;;;;;;;4846305;29;20045;-82
2024/02/05 07:05:01;;;;;;;4.30;1.50;;;;;;;;;;4844763;29;20050;-81
2024/02/05 07:07:31;;;;;;;3.78;1.88;;;;;;;;;;4844619;29;20054;-81
2024/02/05 07:10:03;;;;;;;4.15;1.20;;;;;;;;;;4844168;29;20050;-81
2024/02/05 07:12:33;;;;;;;8.18;1.63;;;;;;;;;;4845080;29;20053;-82
2024/02/05 07:15:08;;;;;;;8.15;1.42;;;;;;;;;;4844548;29;20054;-82
2024/02/05 07:17:38;;;;;;;3.33;1.30;;;;;;;;;;4828093;29;20069;-82
2024/02/05 07:20:10;;;;;;;4.13;1.33;;;;;;;;;;4827686;29;20050;-82
2024/02/05 07:22:40;;;;;;;3.55;1.23;;;;;;;;;;4828100;29;20051;-82
2024/02/05 07:25:10;;;;;;;3.80;1.30;;;;;;;;;;4828222;29;20389;-82
2024/02/05 07:27:40;;;;;;;8.98;2.35;;;;;;;;;;4826279;29;20054;-82
2024/02/05 07:30:13;;;;;;;3.63;1.48;;;;;;;;;;4844110;29;20046;-84
2024/02/05 07:32:43;;;;;;;4.03;1.52;;;;;;;;;;4843926;29;20046;-83
2024/02/05 07:35:13;;;;;;;6.40;1.85;;;;;;;;;;4843625;29;20064;-82
2024/02/05 07:37:43;;;;;;;6.13;1.55;;;;;;;;;;4826813;29;20089;-82
2024/02/05 07:40:13;;;;;;;7.35;1.70;;;;;;;;;;4843887;29;20062;-82
2024/02/05 07:42:45;;;;;;;6.75;1.63;;;;;;;;;;4844494;29;20050;-82
2024/02/05 07:45:17;;;;;;;;;;;;;;;;;;4827297;29;20065;-82
2024/02/05 07:47:47;;;;;;;3.47;1.80;;;;;;;;;;4857043;29;19936;-82
2024/02/05 07:50:17;;;;;;;7.70;1.67;;;;;;;;;;4828213;29;20057;-81
2024/02/05 07:52:48;;;;;;;3.05;1.42;;;;;;;;;;4843679;29;20050;-81
2024/02/05 07:55:19;;;;;;;4.70;1.83;;;;;;;;;;4826334;29;20527;-81
2024/02/05 07:57:49;;;;;;;8.63;1.92;;;;;;;;;;4826509;29;20058;-81
2024/02/05 08:00:20;;;;;;;12.85;2.20;;;;;;;;;;4843679;29;20046;-81
2024/02/05 08:02:50;;;;;;;4.95;1.80;;;;;;;;;;4857327;29;20069;-81
2024/02/05 08:05:20;;;;;;;4.47;1.98;;;;;;;;;;4827213;29;20050;-81
2024/02/05 08:07:50;;;;;;;7.68;2.00;;;;;;;;;;4843932;29;20053;-81
2024/02/05 08:10:21;;;;;;;5.35;1.65;;;;;;;;;;4843370;29;20073;-80
2024/02/05 08:12:51;;;;;;;5.05;1.75;;;;;;;;;;4843172;29;20053;-81
2024/02/05 08:15:21;;;;;;;6.70;2.13;;;;;;;;;;4826619;29;20062;-81
2024/02/05 08:17:51;;;;;;;5.00;1.73;;;;;;;;;;4826441;29;20070;-81
2024/02/05 08:20:22;;;;;;;5.85;1.80;;;;;;;;;;4843632;29;20053;-81
2024/02/05 08:22:53;;;;;;;5.45;1.98;;;;;;;;;;4843086;29;20052;-81
2024/02/05 08:25:24;;;;;;;10.93;2.67;;;;;;;;;;4842789;29;20073;-80
2024/02/05 08:27:56;;;;;;;5.03;1.42;;;;;;;;;;4842933;29;20050;-81
2024/02/05 08:30:27;;;;;;;5.70;1.67;;;;;;;;;;4843305;29;20488;-81
2024/02/05 08:32:57;;;;;;;9.77;1.50;;;;;;;;;;4842764;29;20054;-81
2024/02/05 08:35:28;;;;;;;7.28;1.58;;;;;;;;;;4842680;29;20515;-81
2024/02/05 08:37:59;;;;;;;9.13;1.70;;;;;;;;;;4842688;29;20042;-81
2024/02/05 08:40:28;;;;;;;4.43;1.63;;;;;;;;;;4826540;29;20070;-81
2024/02/05 08:42:59;;;;;;;3.33;1.17;;;;;;;;;;4842784;29;20322;-81
2024/02/05 08:45:30;;;;;;;4.40;1.42;;;;;;;;;;4843208;29;20053;-81
2024/02/05 08:48:02;;;;;;;4.55;1.60;;;;;;;;;;4842597;29;20046;-81
2024/02/05 08:50:36;;;;;;;5.38;1.30;;;;;;;;;;4826175;29;20054;-81
2024/02/05 08:53:06;;;;;;;3.10;1.27;;;;;;;;;;4826217;29;20046;-81
2024/02/05 08:55:38;;;;;;;3.95;1.58;;;;;;;;;;4842389;29;20058;-81
2024/02/05 08:58:08;;;;;;;5.22;1.52;;;;;;;;;;4842848;29;20042;-81
2024/02/05 09:00:38;;;;;;;4.80;1.30;;;;;;;;;;4841506;29;20492;-82
2024/02/05 09:03:10;;;;;;;2.28;1.00;;;;;;;;;;4841827;29;20057;-81
2024/02/05 09:05:41;;;;;;;6.05;1.20;;;;;;;;;;4842189;29;20046;-81
2024/02/05 09:08:15;;;;;;;4.15;1.30;;;;;;;;;;4842566;29;20500;-82
2024/02/05 09:10:45;;;;;;;4.70;1.20;;;;;;;;;;4842002;29;20048;-82
2024/02/05 09:13:15;;;;;;;5.75;1.15;;;;;;;;;;4842747;29;20094;-83
2024/02/05 09:15:46;;;;;;;4.55;1.25;;;;;;;;;;4828374;29;20065;-82
2024/02/05 09:18:16;;;;;;;2.90;1.15;;;;;;;;;;4825257;29;20069;-82
2024/02/05 09:20:48;;;;;;;2.63;1.30;;;;;;;;;;4824812;29;20073;-82
2024/02/05 09:23:20;;;;;;;3.10;1.33;;;;;;;;;;4824426;29;20058;-82
2024/02/05 09:25:50;;;;;;;4.53;1.30;;;;;;;;;;4848482;29;20054;-82
2024/02/05 09:28:21;;;;;;;5.88;1.42;;;;;;;;;;4843014;29;20492;-82
2024/02/05 09:30:51;;;;;;;2.42;1.00;;;;;;;;;;4825334;29;20060;-82
2024/02/05 09:33:37;;;;;;;2.00;1.27;;;;;;;;;;4856173;29;20053;-83
2024/02/05 09:36:08;;;;;;;3.70;1.65;;;;;;;;;;4829177;29;20069;-82
2024/02/05 09:38:37;;;;;;;2.85;1.02;;;;;;;;;;4824105;29;20050;-82
2024/02/05 09:41:12;;;;;;;7.53;1.40;;;;;;;;;;4823977;29;20054;-82
2024/02/05 09:43:43;;;;;;;4.03;1.55;;;;;;;;;;4837513;29;20054;-82
2024/02/05 09:46:15;;;;;;;3.13;1.40;;;;;;;;;;4823869;29;20049;-83
2024/02/05 09:48:47;;;;;;;4.70;1.42;;;;;;;;;;4823886;29;20386;-84
2024/02/05 09:51:18;;;;;;;1.88;1.10;;;;;;;;;;4827179;29;20405;-84
2024/02/05 09:53:49;;;;;;;4.05;1.08;;;;;;;;;;4811684;29;20377;-84
2024/02/05 09:56:25;;;;;;;2.45;1.08;;;;;;;;;;4827599;29;20042;-82
2024/02/05 09:58:56;;;;;;;2.40;1.13;;;;;;;;;;4827162;29;20054;-82
2024/02/05 10:01:27;;;;;;;4.55;1.23;;;;;;;;;;4841100;29;20051;-82
2024/02/05 10:03:59;;;;;;;4.20;1.23;;;;;;;;;;4827526;29;20049;-82
2024/02/05 10:06:39;;;;;;;3.63;1.30;;;;;;;;;;4808844;29;20071;-82
2024/02/05 10:09:12;;;;;;;2.22;1.02;;;;;;;;;;4824781;29;20049;-82
2024/02/05 10:11:50;;;;;;;3.58;1.15;;;;;;;;;;4839524;29;20046;-82
2024/02/05 10:14:25;;;;;;;;;;;;;;;;;;4827753;29;20058;-82
2024/02/05 10:16:58;;;;;;;3.53;1.35;;;;;;;;;;4827089;29;19925;-82
2024/02/05 10:19:34;;;;;;;5.13;1.10;;;;;;;;;;4838654;29;20055;-81
2024/02/05 10:22:05;;;;;;;;;;;;;;;;;;4827010;29;20437;-82
2024/02/05 10:24:42;;;;;;;3.90;1.20;;;;;;;;;;4826550;29;19931;-82
2024/02/05 10:27:17;;;;;;;3.85;1.30;;;;;;;;;;4826457;29;20077;-83
2024/02/05 10:30:00;;;;;;;2.90;1.13;;;;;;;;;;4826799;29;20046;-82
2024/02/05 10:32:33;;;;;;;2.65;1.00;;;;;;;;;;4826748;29;20050;-83
2024/02/05 10:35:03;;;;;;;3.95;1.15;;;;;;;;;;4834772;29;20045;-83
2024/02/05 10:37:34;;;;;;;2.15;1.23;;;;;;;;;;4843394;29;20046;-82
2024/02/05 10:40:10;;;;;;;5.63;1.25;;;;;;;;;;4842662;29;20050;-84
2024/02/05 10:42:45;;;;;;;1.55;0.90;;;;;;;;;;4826858;29;20066;-83
2024/02/05 10:45:16;;;;;;;3.13;1.15;;;;;;;;;;4857864;29;20054;-83
2024/02/05 10:47:46;;;;;;;3.13;1.52;;;;;;;;;;4827807;29;20080;-83
2024/02/05 10:50:16;;;;;;;8.43;1.40;;;;;;;;;;4827488;29;20512;-83
2024/02/05 10:52:46;;;;;;;2.50;1.13;;;;;;;;;;4826644;29;20074;-83
2024/02/05 10:55:16;;;;;;;8.10;1.17;;;;;;;;;;4842814;29;20050;-83
2024/02/05 10:57:50;;;;;;;2.30;1.23;;;;;;;;;;4843766;29;20062;-83
2024/02/05 11:00:21;;;;;;;4.20;1.25;;;;;;;;;;4827022;29;20050;-84
2024/02/05 11:03:00;;;;;;;4.13;1.80;;;;;;;;;;4843613;29;20058;-84
2024/02/05 11:05:32;;;;;;;3.15;0.90;;;;;;;;;;4826213;29;20057;-83
2024/02/05 11:08:09;;;;;;;2.97;1.20;;;;;;;;;;4843264;29;20046;-83
2024/02/05 11:10:45;;;;;;;2.55;0.95;;;;;;;;;;4827554;29;20099;-83
2024/02/05 11:13:24;;;;;;;2.75;0.90;;;;;;;;;;4825841;29;20046;-83
2024/02/05 11:15:57;;;;;;;3.72;1.33;;;;;;;;;;4832916;29;20050;-83
2024/02/05 11:18:40;;;;;;;2.50;1.15;;;;;;;;;;4843117;29;20054;-83
2024/02/05 11:21:14;;;;;;;2.83;1.10;;;;;;;;;;4836556;29;20043;-82
2024/02/05 11:23:46;;;;;;;3.85;1.20;;;;;;;;;;4825316;29;20053;-84
2024/02/05 11:26:16;;;;;;;5.13;1.20;;;;;;;;;;4842986;29;20042;-83
2024/02/05 11:28:53;;;;;;;3.20;0.88;;;;;;;;;;4843104;29;20053;-85
2024/02/05 11:31:27;;;;;;;4.28;1.10;;;;;;;;;;4842480;29;20046;-87
2024/02/05 11:34:06;;;;;;;3.83;1.13;;;;;;;;;;4826726;29;20053;-86
2024/02/05 11:36:46;;;;;;;2.80;1.02;;;;;;;;;;4842431;29;20061;-86
2024/02/05 11:39:17;;;;;;;2.03;1.00;;;;;;;;;;4842366;29;20072;-86
2024/02/05 11:41:47;;;;;;;2.45;0.98;;;;;;;;;;4827412;29;20054;-86
2024/02/05 11:44:18;;;;;;;3.95;1.27;;;;;;;;;;4826147;29;20053;-85
2024/02/05 11:46:49;;;;;;;2.90;1.02;;;;;;;;;;4842086;29;20050;-86
2024/02/05 11:49:39;;;;;;;2.08;0.95;;;;;;;;;;4821466;29;20054;-87
2024/02/05 11:52:12;;;;;;;9.65;1.45;;;;;;;;;;4826024;29;20050;-87
2024/02/05 11:54:43;;;;;;;4.13;1.30;;;;;;;;;;4825935;29;20054;-87
2024/02/05 11:57:13;;;;;;;3.08;0.90;;;;;;;;;;4826608;29;20516;-84
2024/02/05 11:59:43;;;;;;;2.40;1.17;;;;;;;;;;4841699;29;20424;-86
2024/02/05 12:02:13;;;;;;;1.73;0.90;;;;;;;;;;4841379;29;20050;-86
2024/02/05 12:04:43;;;;;;;3.65;1.00;;;;;;;;;;4825636;29;20591;-85
2024/02/05 12:07:15;;;;;;;3.40;1.38;;;;;;;;;;4841965;29;20061;-86
2024/02/05 12:09:47;;;;;;;3.67;1.08;;;;;;;;;;4855461;29;20396;-85
2024/02/05 12:12:17;;;;;;;4.53;1.00;;;;;;;;;;4825065;29;20485;-84
2024/02/05 12:14:50;;;;;;;1.92;1.00;;;;;;;;;;4825968;29;20054;-85
2024/02/05 12:17:28;;;;;;;3.35;0.88;;;;;;;;;;4841910;29;20062;-85
2024/02/05 12:20:00;;;;;;;4.32;1.30;;;;;;;;;;4825307;29;20056;-85
2024/02/05 12:22:31;;;;;;;2.83;1.05;;;;;;;;;;4825674;29;20385;-84
2024/02/05 12:25:01;;;;;;;4.00;1.40;;;;;;;;;;4825519;29;20065;-84
2024/02/05 12:27:32;;;;;;;4.13;0.98;;;;;;;;;;4827087;29;20125;-86
2024/02/05 12:30:08;;;;;;;5.53;1.75;;;;;;;;;;4833415;29;20049;-87
2024/02/05 12:32:44;;;;;;;3.38;1.20;;;;;;;;;;4834049;29;20057;-85
2024/02/05 12:35:16;;;;;;;2.88;1.10;;;;;;;;;;4852805;29;20053;-84
2024/02/05 12:37:49;;;;;;;3.15;1.13;;;;;;;;;;4824601;29;20066;-85
2024/02/05 12:40:20;;;;;;;1.98;1.08;;;;;;;;;;4822899;29;20050;-84
2024/02/05 12:42:51;;;;;;;4.75;1.13;;;;;;;;;;4824290;29;20520;-85
2024/02/05 12:45:21;;;;;;;1.60;1.10;;;;;;;;;;4808310;29;20493;-86
2024/02/05 12:47:54;;;;;;;3.03;1.30;;;;;;;;;;4823387;29;20053;-84
2024/02/05 12:50:26;;;;;;;3.78;1.10;;;;;;;;;;4822311;29;20051;-86
2024/02/05 12:53:01;;;;;;;4.20;0.88;;;;;;;;;;4822405;29;20046;-86
2024/02/05 12:55:32;;;;;;;2.50;1.30;;;;;;;;;;4825009;29;20480;-86
2024/02/05 12:58:03;;;;;;;2.97;1.20;;;;;;;;;;4841394;29;20053;-85
2024/02/05 13:00:34;;;;;;;;;;;;;;;;;;4840472;29;20050;-87
2024/02/05 13:03:07;;;;;;;3.20;0.90;;;;;;;;;;4823038;29;19932;-86
2024/02/05 13:05:43;;;;;;;2.03;1.10;;;;;;;;;;4854742;29;20519;-85
2024/02/05 13:08:16;;;;;;;3.88;1.10;;;;;;;;;;4825385;29;20046;-85
2024/02/05 13:10:49;;;;;;;1.65;1.05;;;;;;;;;;4840862;29;20061;-83
2024/02/05 13:13:21;;;;;;;3.83;1.20;;;;;;;;;;4824690;29;20057;-86
2024/02/05 13:15:55;;;;;;;3.33;1.10;;;;;;;;;;4840977;29;20050;-83
2024/02/05 13:18:26;;;;;;;3.42;1.40;;;;;;;;;;4840918;29;20053;-84
2024/02/05 13:21:00;;;;;;;1.90;0.82;;;;;;;;;;4839080;29;20053;-85
2024/02/05 13:23:33;;;;;;;2.40;1.00;;;;;;;;;;4824541;29;20061;-85
2024/02/05 13:26:05;;;;;;;1.65;1.00;;;;;;;;;;4827768;29;20497;-85
2024/02/05 13:28:39;;;;;;;3.03;0.95;;;;;;;;;;4844580;29;20049;-85
2024/02/05 13:31:19;;;;;;;3.67;1.35;;;;;;;;;;4827553;29;20050;-85
2024/02/05 13:33:52;;;;;;;1.75;1.10;;;;;;;;;;4829311;29;20061;-86
2024/02/05 13:36:22;;;;;;;2.00;1.35;;;;;;;;;;4844476;29;20061;-85
2024/02/05 13:38:55;;;;;;;2.45;1.17;;;;;;;;;;4827794;29;20050;-85
2024/02/05 13:41:29;;;;;;;3.63;1.10;;;;;;;;;;4840348;29;20049;-84
2024/02/05 13:44:00;;;;;;;1.60;1.08;;;;;;;;;;4843960;29;20038;-85
2024/02/05 13:46:33;;;;;;;4.60;1.13;;;;;;;;;;4857842;29;20046;-85
2024/02/05 13:49:05;;;;;;;2.53;1.05;;;;;;;;;;4828058;29;20057;-85
2024/02/05 13:51:38;;;;;;;4.63;0.90;;;;;;;;;;4844353;29;20076;-85
2024/02/05 13:54:08;;;;;;;3.67;1.02;;;;;;;;;;4831036;29;20056;-84
2024/02/05 13:56:38;;;;;;;2.25;1.10;;;;;;;;;;4876421;29;20064;-85
2024/02/05 13:59:11;;;;;;;2.17;1.25;;;;;;;;;;4834971;29;20058;-84
2024/02/05 14:01:42;;;;;;;1.20;0.93;;;;;;;;;;4827587;29;20058;-85
2024/02/05 14:04:12;;;;;;;4.30;1.20;;;;;;;;;;4843785;29;20057;-81
2024/02/05 14:06:43;;;;;;;3.00;1.10;;;;;;;;;;4827521;29;20501;-83
2024/02/05 14:09:13;;;;;;;2.65;1.20;;;;;;;;;;4844201;29;20057;-85
2024/02/05 14:11:43;;;;;;;3.85;0.88;;;;;;;;;;4844185;29;20057;-83
2024/02/05 14:14:19;;;;;;;5.22;1.25;;;;;;;;;;4828951;29;20061;-84
2024/02/05 14:16:50;;;;;;;3.85;1.17;;;;;;;;;;4858162;29;20416;-83
2024/02/05 14:19:21;;;;;;;5.30;1.33;;;;;;;;;;4844574;29;20056;-86
2024/02/05 14:21:52;;;;;;;4.13;1.20;;;;;;;;;;4827783;29;20060;-85
2024/02/05 14:24:22;;;;;;;6.70;1.42;;;;;;;;;;4844143;29;20054;-84
2024/02/05 14:26:53;;;;;;;4.18;1.20;;;;;;;;;;4843669;29;20049;-84
2024/02/05 14:29:23;;;;;;;5.03;1.30;;;;;;;;;;4828434;29;20045;-85
2024/02/05 14:31:54;;;;;;;2.45;1.17;;;;;;;;;;4844164;29;20057;-85
2024/02/05 14:34:25;;;;;;;4.13;1.20;;;;;;;;;;4843990;29;20054;-83
2024/02/05 14:36:55;;;;;;;6.63;1.45;;;;;;;;;;4843757;29;20069;-86
2024/02/05 14:39:26;;;;;;;2.85;1.00;;;;;;;;;;4844638;29;20050;-83
2024/02/05 14:41:57;;;;;;;3.08;1.42;;;;;;;;;;4844816;29;20053;-87
2024/02/05 14:44:32;;;;;;;6.63;1.25;;;;;;;;;;4844926;29;20069;-84
2024/02/05 14:47:02;;;;;;;3.13;1.23;;;;;;;;;;4844688;29;20042;-83
2024/02/05 14:49:33;;;;;;;3.85;1.52;;;;;;;;;;4828085;29;20049;-85
2024/02/05 14:52:04;;;;;;;4.40;1.23;;;;;;;;;;4844961;29;20046;-85
2024/02/05 14:54:34;;;;;;;3.25;1.10;;;;;;;;;;4844462;29;20054;-83
2024/02/05 14:57:04;;;;;;;5.18;1.25;;;;;;;;;;4844678;29;20046;-85
2024/02/05 14:59:34;;;;;;;3.33;1.17;;;;;;;;;;4826925;29;20057;-83
2024/02/05 15:02:06;;;;;;;8.82;1.35;;;;;;;;;;4844673;29;20060;-83
2024/02/05 15:04:37;;;;;;;;;;;;;;;;;;4844835;29;20041;-84
2024/02/05 15:07:07;;;;;;;3.47;1.13;;;;;;;;;;4828780;29;19931;-85
2024/02/05 15:09:37;;;;;;;1.40;0.93;;;;;;;;;;4828053;29;20046;-84
2024/02/05 15:12:08;;;;;;;3.28;1.15;;;;;;;;;;4844209;29;20400;-83
2024/02/05 15:14:39;;;;;;;4.82;1.27;;;;;;;;;;4844969;29;20385;-84